This is the latest recevied weather packets stored in our database for station/object IK5UIK-3. If no packets are shown the sender has not sent any weather packets the latest 10 day(s).
| Time | Temp. | Humidity | Pressure | Rain* | Wind** | Luminosity | Snow |
|---|---|---|---|---|---|---|---|
| 1787400588 | 30.56° C | 45% | 1010.4 hPa | 0 mm | - | - | - |
| 1787400404 | 30.56° C | 45% | 1010.4 hPa | 0 mm | - | - | - |
| 1787400292 | 30.56° C | 45% | 1010.3 hPa | 0 mm | - | - | - |
| 1787400044 | 30.56° C | 43% | 1010.4 hPa | 0 mm | - | - | - |
| 1787399987 | 30.56° C | 43% | 1010.4 hPa | 0 mm | - | - | - |
| 1787399684 | 30.56° C | 46% | 1010.3 hPa | 0 mm | - | - | - |
| 1787399387 | 30.56° C | 47% | 1010.3 hPa | 0 mm | - | - | - |
| 1787399324 | 30.56° C | 47% | 1010.4 hPa | 0 mm | - | - | - |
| 1787398964 | 30.56° C | 47% | 1010.4 hPa | 0 mm | - | - | - |
| 1787398788 | 30.56° C | 46% | 1010.4 hPa | 0 mm | - | - | - |
| 1787398604 | 30.56° C | 45% | 1010.4 hPa | 0 mm | - | - | - |
| 1787398244 | 30.56° C | 45% | 1010.4 hPa | 0 mm | - | - | - |
| 1787397884 | 30.56° C | 45% | 1010.4 hPa | 0 mm | - | - | - |
| 1787397587 | 30.56° C | 45% | 1010.4 hPa | 0 mm | - | - | - |
| 1787397524 | 30.56° C | 45% | 1010.5 hPa | 0 mm | - | - | - |
| 1787397164 | 30.56° C | 46% | 1010.3 hPa | 0 mm | - | - | - |
| 1787396804 | 30.56° C | 45% | 1010.4 hPa | 0 mm | - | - | - |
| 1787396444 | 30.56° C | 45% | 1010.4 hPa | 0 mm | - | - | - |
| 1787396387 | 30.56° C | 46% | 1010.2 hPa | 0 mm | - | - | - |
| 1787396084 | 30.56° C | 45% | 1010.1 hPa | 0 mm | - | - | - |
| 1787395724 | 30.56° C | 44% | 1010.1 hPa | 0 mm | - | - | - |
| 1787395487 | 30.56° C | 46% | 1010.1 hPa | 0 mm | - | - | - |
| 1787395364 | 30.56° C | 45% | 1010.1 hPa | 0 mm | - | - | - |
| 1787395004 | 30.56° C | 44% | 1010.3 hPa | 0 mm | - | - | - |
| 1787394644 | 30.56° C | 45% | 1010.2 hPa | 0 mm | - | - | - |
* Rain latest hour (hover to see other rain measurements)
** Current wind speed in m/s (hover to see current wind gust speed)